• Join FlightAware (Why Join?)
  • Login
  • US Flag 
12:43AM EDT


 

Airport Tracker/Info


-or-


 

Live Flight TrackerFlight Track Log ✈ NKS216 ✈ 26-Jun-2013 ✈ KLAX - KIAH

Flight Track Log - Related Links

Times and Time Zones

All times are in EDT time to prevent confusion due to time zone crossing. See the NKS216 flight status page for this flight to view local times or setup timezone preferences in your user account.

Time Position Orientation Groundspeed Altitude Reporting Facility
EDT Latitude Longitude Course Direction KTS MPH feet Rate Location/Type
04:25AM 33.9230 -118.4550 225° Southwest 191 220 1,900  Level FlightAware
04:26AM 33.8960 -118.4740 210° Southwest 227 261 2,600 1,500 Climbing FlightAware
04:26AM 33.8690 -118.4810 192° South 263 303 3,300 2,220 Climbing FlightAware
04:27AM 33.8490 -118.4860 192° South 269 310 4,100 3,060 Climbing FlightAware
04:27AM 33.8140 -118.4930 189° South 275 316 5,600 3,000 Climbing FlightAware
04:28AM 33.7740 -118.5030 192° South 280 322 7,200 3,060 Climbing FlightAware
04:28AM 33.7350 -118.5120 191° South 284 327 8,700 2,760 Climbing FlightAware
04:29AM 33.6880 -118.4880 157° South 295 339 10,400 2,220 Climbing FlightAware
04:29AM 33.6790 -118.4620 113° Southeast 310 357 10,800 1,200 Climbing FlightAware
04:29AM 33.6680 -118.4250 110° East 332 382 11,200 1,740 Climbing FlightAware
04:31AM 33.6440 -118.2010 97° East 378 435 14,800 1,980 Climbing FlightAware
04:32AM 33.6410 -118.1190 92° East 380 437 16,300 1,980 Climbing FlightAware
04:33AM 33.6340 -118.0320 95° East 392 451 17,500 1,680 Climbing FlightAware
04:33AM 33.6270 -117.9350 95° East 404 465 18,700 1,740 Climbing FlightAware
04:34AM 33.6210 -117.8450 95° East 408 470 20,000 1,800 Climbing FlightAware
04:35AM 33.6130 -117.7410 95° East 413 475 21,300 1,560 Climbing FlightAware
04:35AM 33.6070 -117.6450 94° East 420 483 22,300 1,440 Climbing FlightAware
04:36AM 33.6000 -117.5500 95° East 428 493 23,300 1,440 Climbing FlightAware
04:37AM 33.5930 -117.4520 95° East 433 498 24,300 1,380 Climbing FlightAware
04:38AM 33.5860 -117.3510 95° East 438 504 25,300 1,500 Climbing FlightAware
04:38AM 33.5790 -117.2580 95° East 438 504 26,300 1,260 Climbing FlightAware
04:39AM 33.5710 -117.1490 95° East 448 516 27,100 1,080 Climbing FlightAware
04:40AM 33.5630 -117.0390 95° East 456 525 27,900 1,020 Climbing FlightAware
04:40AM 33.5550 -116.9350 95° East 462 532 28,600 1,140 Climbing FlightAware
04:41AM 33.5460 -116.8220 95° East 459 528 29,600 1,320 Climbing FlightAware
04:42AM 33.5390 -116.7300 95° East 458 527 30,400 1,320 Climbing FlightAware
04:42AM 33.5300 -116.6130 95° East 455 524 31,500 1,740 Climbing FlightAware
04:43AM 33.5220 -116.5150 96° East 440 506 32,900 1,620 Climbing FlightAware
04:44AM 33.5140 -116.4090 95° East 440 506 33,800 780 Climbing FlightAware
04:48AM 33.4690 -115.8720 96° East 458 527 36,600 660 Climbing FlightAware
04:48AM 33.4570 -115.7310 96° East 453 521 37,000 240 Climbing FlightAware
04:49AM 33.4470 -115.6020 95° East 450 518 37,000  Level FlightAware
04:50AM 33.4410 -115.5260 95° East 450 518 37,000  Level FlightAware
04:51AM 33.4330 -115.4140 95° East 450 518 37,000  Level FlightAware
04:51AM 33.4170 -115.2750 98° East 453 521 37,000  Level FlightAware
04:52AM 33.4090 -115.1840 96° East 453 521 37,000  Level FlightAware
04:53AM 33.4030 -115.1080 95° East 453 521 37,000  Level FlightAware
04:54AM 33.3860 -114.9260 96° East 453 521 37,000  Level FlightAware
04:54AM 33.3780 -114.8400 96° East 453 521 37,000  Level FlightAware
04:55AM 33.3710 -114.7620 96° East 453 521 37,000  Level FlightAware
04:56AM 33.3630 -114.6640 96° East 453 521 37,000  Level FlightAware
04:56AM 33.3560 -114.5860 96° East 453 521 37,000  Level FlightAware
04:57AM 33.3470 -114.4880 96° East 453 521 37,000  Level FlightAware
04:58AM 33.3270 -114.3070 97° East 447 514 37,000  Level FlightAware
04:59AM 33.3170 -114.2050 97° East 448 516 37,000  Level FlightAware
04:59AM 33.3060 -114.0960 97° East 446 513 37,000  Level FlightAware
05:00AM 33.2970 -114.0100 97° East 445 512 37,000  Level FlightAware
05:01AM 33.2860 -113.8930 96° East 443 510 37,000  Level FlightAware
05:01AM 33.2750 -113.7900 97° East 441 507 37,000  Level FlightAware
05:02AM 33.2640 -113.6850 97° East 437 503 37,000  Level FlightAware
05:03AM 33.2620 -113.6560 95° East 437 503 37,000  Level FlightAware
05:03AM 33.2520 -113.5670 98° East 435 501 37,000  Level FlightAware
05:04AM 33.2410 -113.4560 97° East 433 498 37,000  Level FlightAware
05:05AM 33.2300 -113.3590 98° East 432 497 37,000  Level FlightAware
05:06AM 33.2200 -113.2590 97° East 432 497 37,000  Level FlightAware
05:06AM 33.2020 -113.0870 97° East 433 498 37,000  Level FlightAware
05:07AM 33.1930 -113.0030 97° East 435 501 37,000  Level FlightAware
05:08AM 33.1800 -112.8910 98° East 438 504 37,000  Level FlightAware
05:08AM 33.1690 -112.7940 98° East 439 505 37,000 60 Level FlightAware
05:09AM 33.1590 -112.6970 97° East 440 506 37,100  Climbing FlightAware
05:10AM 33.1470 -112.5910 98° East 439 505 37,000 -120 Descending FlightAware
05:11AM 33.1360 -112.4920 98° East 439 505 37,000  Level FlightAware
05:11AM 33.1240 -112.3900 98° East 439 505 37,000  Level FlightAware
05:12AM 33.1150 -112.3050 97° East 438 504 37,000  Level FlightAware
05:13AM 33.1040 -112.2130 98° East 438 504 37,000  Level FlightAware
05:13AM 33.0920 -112.1040 97° East 439 505 37,000  Level FlightAware
05:14AM 33.0800 -112.0060 98° East 439 505 37,000  Level FlightAware
05:15AM 33.0700 -111.9240 98° East 439 505 37,000  Level FlightAware
05:15AM 33.0560 -111.8080 98° East 440 506 37,000  Level FlightAware
05:16AM 33.0450 -111.7090 98° East 440 506 37,000  Level FlightAware
05:17AM 33.0350 -111.6210 98° East 439 505 37,000  Level FlightAware
05:17AM 33.0210 -111.5110 99° East 439 505 37,000  Level FlightAware
05:18AM 33.0090 -111.4060 98° East 439 505 37,000  Level FlightAware
05:19AM 32.9960 -111.3020 98° East 440 506 37,000  Level FlightAware
05:20AM 32.9840 -111.2050 98° East 441 507 37,000  Level FlightAware
05:20AM 32.9730 -111.1150 98° East 441 507 37,000  Level FlightAware
05:21AM 32.9580 -110.9970 99° East 442 509 37,000  Level FlightAware
05:22AM 32.9460 -110.9010 98° East 441 507 37,000  Level FlightAware
05:22AM 32.9330 -110.7970 98° East 441 507 37,000  Level FlightAware
05:23AM 32.9200 -110.6960 99° East 441 507 37,000  Level FlightAware
05:24AM 32.9080 -110.6060 99° East 440 506 37,000  Level FlightAware
05:24AM 32.8940 -110.4970 99° East 439 505 37,000  Level FlightAware
05:25AM 32.8820 -110.4000 98° East 438 504 37,000  Level FlightAware
05:26AM 32.8690 -110.2990 99° East 439 505 37,000  Level FlightAware
05:27AM 32.8560 -110.2040 99° East 440 506 37,000  Level FlightAware
05:27AM 32.8430 -110.1050 99° East 441 507 37,000  Level FlightAware
05:28AM 32.8280 -109.9960 99° East 442 509 37,000  Level FlightAware
05:29AM 32.8160 -109.9050 99° East 443 510 37,000  Level FlightAware
05:29AM 32.8010 -109.7920 99° East 444 511 37,000  Level FlightAware
05:33AM 32.7270 -109.2480 99° East 444 511 37,000  Level FlightAware
05:34AM 32.7140 -109.1570 100° East 445 512 37,000  Level FlightAware
05:35AM 32.6990 -109.0510 100° East 446 513 37,000  Level FlightAware
05:35AM 32.6850 -108.9530 100° East 446 513 37,000  Level FlightAware
05:36AM 32.6690 -108.8460 100° East 446 513 37,000  Level FlightAware
05:37AM 32.6560 -108.7530 99° East 447 514 37,000  Level FlightAware
05:37AM 32.6430 -108.6610 100° East 448 516 37,000  Level FlightAware
05:38AM 32.6300 -108.5730 100° East 449 517 37,000  Level FlightAware
05:39AM 32.6150 -108.4730 100° East 450 518 37,000  Level FlightAware
05:39AM 32.6010 -108.3770 100° East 451 519 37,000  Level FlightAware
05:40AM 32.5860 -108.2750 100° East 453 521 37,000  Level FlightAware
05:41AM 32.5590 -108.0920 100° East 452 520 37,000  Level FlightAware
05:42AM 32.5420 -107.9800 100° East 454 522 37,000  Level FlightAware
05:43AM 32.5160 -107.8070 100° East 454 522 37,000  Level FlightAware
05:44AM 32.4920 -107.6520 100° East 37,000  Level FlightAware
05:46AM 32.4530 -107.3990 100° East 457 526 37,000  Level FlightAware
05:47AM 32.4290 -107.2420 100° East 454 522 37,000  Level FlightAware
05:48AM 32.4130 -107.1440 101° East 454 522 37,000  Level FlightAware
05:48AM 32.3990 -107.0550 101° East 454 522 37,000  Level FlightAware
05:49AM 32.3860 -106.9720 100° East 454 522 37,000  Level FlightAware
05:49AM 32.3700 -106.8710 101° East 456 525 37,000  Level FlightAware
05:51AM 32.3420 -106.6970 101° East 456 525 37,000  Level FlightAware
05:51AM 32.3260 -106.5980 101° East 456 525 37,000  Level FlightAware
05:52AM 32.3080 -106.4870 101° East 454 522 37,000  Level FlightAware
05:53AM 32.2920 -106.3900 101° East 453 521 37,000  Level FlightAware
05:53AM 32.2800 -106.3170 101° East 453 521 37,000  Level FlightAware
05:54AM 32.2660 -106.2330 101° East 453 521 37,000  Level FlightAware
05:55AM 32.2480 -106.1240 101° East 454 522 37,000  Level FlightAware
05:55AM 32.2300 -106.0160 101° East 456 525 37,000  Level FlightAware
05:56AM 32.2110 -105.8990 101° East 457 526 37,000  Level FlightAware
05:57AM 32.1900 -105.7720 101° East 457 526 37,000  Level FlightAware
05:58AM 32.1770 -105.6910 101° East 457 526 37,000  Level FlightAware
05:58AM 32.1640 -105.6160 102° East 457 526 37,000  Level FlightAware
05:59AM 32.1480 -105.5160 101° East 457 526 37,000  Level FlightAware
06:00AM 32.1360 -105.4430 101° East 457 526 37,000  Level FlightAware
06:01AM 32.1190 -105.3410 101° East 457 526 37,000  Level FlightAware
06:01AM 32.1060 -105.2630 101° East 457 526 37,000  Level FlightAware
06:02AM 32.0900 -105.1640 101° East 457 526 37,000  Level FlightAware
06:03AM 32.0770 -105.0890 102° East 457 526 37,000  Level FlightAware
06:04AM 32.0610 -104.9890 101° East 457 526 37,000  Level FlightAware
06:04AM 32.0490 -104.9140 101° East 457 526 37,000  Level FlightAware
06:05AM 32.0320 -104.8140 101° East 457 526 37,000  Level FlightAware
06:06AM 32.0200 -104.7390 101° East 457 526 37,000  Level FlightAware
06:06AM 31.9490 -104.4020 104° East 456 525 37,000  Level FlightAware
06:07AM 31.9290 -104.2930 102° East 456 525 37,000  Level FlightAware
06:08AM 31.9040 -104.1430 101° East 456 525 37,000  Level FlightAware
06:09AM 31.8910 -104.0640 101° East 456 525 37,000  Level FlightAware
06:09AM 31.8790 -103.9900 101° East 456 525 37,000  Level FlightAware
06:10AM 31.8620 -103.8900 101° East 456 525 37,000  Level FlightAware
06:11AM 31.8420 -103.7660 101° East 456 525 37,000  Level FlightAware
06:12AM 31.8290 -103.6870 101° East 456 525 37,000  Level FlightAware
06:12AM 31.8160 -103.6120 102° East 456 525 37,000  Level FlightAware
06:13AM 31.7990 -103.5070 101° East 456 525 37,000  Level FlightAware
06:14AM 31.7860 -103.4300 101° East 456 525 37,000  Level FlightAware
06:20AM 31.6310 -102.4920 101° East 449 517 37,000  Level FlightAware
06:20AM 31.6210 -102.3970 97° East 449 517 37,000  Level FlightAware
06:21AM 31.6090 -102.2880 97° East 448 516 37,000  Level FlightAware
06:22AM 31.5980 -102.1810 97° East 448 516 37,000  Level FlightAware
06:22AM 31.5880 -102.0850 97° East 447 514 37,000  Level FlightAware
06:23AM 31.5780 -101.9890 97° East 448 516 37,000  Level FlightAware
06:24AM 31.5660 -101.8830 98° East 447 514 37,000  Level FlightAware
06:24AM 31.5560 -101.7870 97° East 447 514 37,000  Level FlightAware
06:25AM 31.5450 -101.6920 98° East 446 513 37,000  Level FlightAware
06:26AM 31.5330 -101.5820 97° East 445 512 37,000  Level FlightAware
06:27AM 31.5210 -101.4760 98° East 443 510 37,000  Level FlightAware
06:27AM 31.5100 -101.3780 97° East 441 507 37,000  Level FlightAware
06:28AM 31.4990 -101.2820 98° East 441 507 37,000  Level FlightAware
06:29AM 31.4880 -101.1860 98° East 441 507 37,000  Level FlightAware
06:29AM 31.4770 -101.0880 97° East 441 507 37,000  Level FlightAware
06:30AM 31.4710 -101.0320 97° East 441 507 37,000  Level FlightAware
06:32AM 31.4340 -100.7130 98° East 444 511 37,000  Level FlightAware
06:33AM 31.4160 -100.5680 98° East 446 513 37,000  Level FlightAware
06:34AM 31.4040 -100.4640 98° East 447 514 37,000  Level FlightAware
06:34AM 31.3920 -100.3600 98° East 446 513 37,000  Level FlightAware
06:35AM 31.3790 -100.2590 99° East 446 513 37,000  Level FlightAware
06:36AM 31.3690 -100.1790 98° East 446 513 37,000  Level FlightAware
06:36AM 31.3570 -100.0820 98° East 445 512 37,000  Level FlightAware
06:37AM 31.3430 -99.9630 98° East 446 513 37,000  Level FlightAware
06:38AM 31.3300 -99.8630 99° East 447 514 37,000  Level FlightAware
06:39AM 31.3180 -99.7620 98° East 447 514 37,000  Level FlightAware
06:39AM 31.3060 -99.6700 99° East 445 512 37,000  Level FlightAware
06:40AM 31.2940 -99.5790 99° East 444 511 37,000  Level FlightAware
06:41AM 31.2800 -99.4640 98° East 444 511 37,000  Level FlightAware
06:41AM 31.2670 -99.3640 99° East 444 511 37,000  Level FlightAware
06:42AM 31.2540 -99.2640 99° East 443 510 37,000  Level FlightAware
06:43AM 31.2410 -99.1650 99° East 440 506 37,000  Level FlightAware
06:43AM 31.2290 -99.0690 98° East 437 503 37,000  Level FlightAware
06:44AM 31.2160 -98.9710 99° East 435 501 37,000  Level FlightAware
06:45AM 31.2011 -98.8612 99° East 434 499 37,000 -120 Level FlightAware ADS-B
06:46AM 31.1885 -98.7676 99° East 436 502 36,900  Descending FlightAware ADS-B
06:46AM 31.1780 -98.6900 99° East 435 501 37,000 60 Climbing FlightAware ADS-B
06:47AM 31.1684 -98.6194 99° East 435 501 37,000  Level FlightAware ADS-B
06:47AM 31.1591 -98.5499 99° East 436 502 37,000  Level FlightAware ADS-B
06:48AM 31.1493 -98.4772 99° East 435 501 37,000  Level FlightAware ADS-B
06:48AM 31.1380 -98.3951 99° East 435 501 37,000  Level FlightAware ADS-B
06:49AM 31.1275 -98.3192 99° East 434 499 37,000  Level FlightAware ADS-B
06:49AM 31.1171 -98.2425 99° East 433 498 37,000  Level FlightAware ADS-B
06:50AM 31.1066 -98.1670 99° East 434 499 37,000  Level FlightAware ADS-B
06:50AM 31.0969 -98.0975 99° East 434 499 37,000  Level FlightAware ADS-B
06:51AM 31.0866 -98.0243 99° East 434 499 37,000  Level FlightAware ADS-B
06:52AM 31.0764 -97.9518 99° East 435 501 37,000  Level FlightAware ADS-B
06:52AM 31.0663 -97.8802 99° East 436 502 37,000  Level FlightAware ADS-B
06:52AM 31.0599 -97.8350 99° East 437 503 37,000  Level FlightAware ADS-B
06:53AM 31.0562 -97.8091 99° East 437 503 37,000  Level FlightAware ADS-B
06:53AM 31.0482 -97.7526 99° East 438 504 37,000  Level FlightAware ADS-B
06:53AM 31.0462 -97.7383 99° East 438 504 37,000  Level FlightAware ADS-B
06:54AM 31.0363 -97.6692 99° East 439 505 37,000  Level FlightAware ADS-B
06:54AM 31.0338 -97.6510 99° East 439 505 37,000  Level FlightAware ADS-B
06:54AM 31.0259 -97.5955 99° East 439 505 37,000  Level FlightAware ADS-B
06:54AM 31.0180 -97.5406 100° East 439 505 37,000  Level FlightAware ADS-B
06:55AM 31.0157 -97.5246 100° East 439 505 37,000  Level FlightAware ADS-B
06:55AM 31.0055 -97.4533 99° East 440 506 37,000  Level FlightAware ADS-B
06:56AM 30.9952 -97.3823 100° East 439 505 37,000  Level FlightAware ADS-B
06:56AM 30.9848 -97.3115 100° East 438 504 37,000  Level FlightAware ADS-B
06:57AM 30.9724 -97.2163 96° East 438 504 37,000  Level FlightAware ADS-B
06:57AM 30.9821 -97.1212 81° East 436 502 37,000 -540 Level FlightAware ADS-B
06:58AM 31.0017 -96.9811 81° East 430 495 36,100 -1,320 Descending FlightAware ADS-B
06:59AM 31.0119 -96.9114 80° East 426 490 35,000 -2,520 Descending FlightAware ADS-B
06:59AM 31.0220 -96.8431 80° East 428 493 33,600 -2,400 Descending FlightAware ADS-B
07:02AM 31.0726 -96.5160 80° East 444 511 28,300 -2,340 Descending FlightAware ADS-B
07:02AM 31.0741 -96.5023 83° East 445 512 28,000 -3,300 Descending FlightAware ADS-B
07:02AM 31.0739 -96.4681 93° East 448 516 27,200 -3,300 Descending FlightAware ADS-B
07:02AM 31.0720 -96.4538 99° East 449 517 26,900 -2,820 Descending FlightAware ADS-B
07:02AM 31.0691 -96.4388 103° East 448 516 26,600 -2,640 Descending FlightAware ADS-B
07:03AM 31.0575 -96.4032 113° Southeast 440 506 25,900 -3,000 Descending FlightAware ADS-B
07:03AM 31.0496 -96.3866 119° Southeast 435 501 25,400 -3,600 Descending FlightAware ADS-B
07:03AM 31.0333 -96.3609 129° Southeast 429 494 24,600 -3,900 Descending FlightAware ADS-B
07:03AM 31.0241 -96.3496 134° Southeast 429 494 24,100 -4,500 Descending FlightAware ADS-B
07:03AM 31.0166 -96.3415 137° Southeast 428 493 23,700 -4,620 Descending FlightAware ADS-B
07:03AM 31.0053 -96.3310 141° Southeast 428 493 23,100 -3,480 Descending FlightAware ADS-B
07:04AM 30.9167 -96.2557 144° Southeast 417 480 20,100 -2,820 Descending FlightAware ADS-B
07:05AM 30.8709 -96.2160 143° Southeast 402 463 19,100 -2,100 Descending FlightAware ADS-B
07:05AM 30.8264 -96.1784 144° Southeast 390 449 18,000 -2,880 Descending FlightAware ADS-B
07:06AM 30.7383 -96.1037 144° Southeast 383 441 14,800 -2,760 Descending FlightAware ADS-B
07:07AM 30.6537 -96.0317 144° Southeast 361 415 12,500 -2,220 Descending FlightAware ADS-B
07:08AM 30.5740 -95.9643 144° Southeast 348 400 10,300 -1,740 Descending FlightAware ADS-B
07:09AM 30.5353 -95.9314 144° Southeast 324 373 9,900 -540 Descending FlightAware ADS-B
07:09AM 30.5173 -95.9164 144° Southeast 304 350 9,900  Level FlightAware ADS-B
07:09AM 30.5006 -95.9023 144° Southeast 294 338 9,900  Level FlightAware ADS-B
07:10AM 30.4559 -95.8645 144° Southeast 291 335 9,900  Level FlightAware ADS-B
07:11AM 30.4256 -95.8335 138° Southeast 290 334 9,900  Level FlightAware ADS-B
07:11AM 30.4225 -95.8307 142° Southeast 290 334 9,900 -420 Level FlightAware ADS-B
07:11AM 30.4065 -95.8215 162° South 293 337 9,800 -600 Descending FlightAware ADS-B
07:11AM 30.3966 -95.8195 172° South 295 339 9,700 -1,380 Descending FlightAware ADS-B
07:11AM 30.3584 -95.8163 176° South 294 338 9,000 -1,500 Descending FlightAware ADS-B
07:12AM 30.3238 -95.8133 175° South 290 334 8,400 -1,200 Descending FlightAware ADS-B
07:12AM 30.2828 -95.8093 175° South 297 342 7,900 -360 Descending FlightAware ADS-B
07:13AM 30.2002 -95.8012 178° South 250 288 7,900  Level FlightAware ADS-B
07:13AM 30.1949 -95.8012 180° South 250 288 7,900  Level FlightAware ADS-B
07:14AM 30.1889 -95.8015 182° South 248 285 7,900  Level FlightAware ADS-B
07:14AM 30.1753 -95.8028 185° South 248 285 7,900 -360 Level FlightAware ADS-B
07:15AM 30.1234 -95.8080 185° South 246 283 7,600 -540 Descending FlightAware ADS-B
07:15AM 30.1090 -95.8094 185° South 245 282 7,400 -1,080 Descending FlightAware ADS-B
07:15AM 30.0922 -95.8108 184° South 244 281 7,100 -1,200 Descending FlightAware ADS-B
07:15AM 30.0738 -95.8123 184° South 241 277 6,800 -960 Descending FlightAware ADS-B
07:16AM 30.0564 -95.8139 185° South 236 272 6,600 -1,140 Descending FlightAware ADS-B
07:16AM 30.0393 -95.8156 185° South 236 272 6,200 -1,620 Descending FlightAware ADS-B
07:16AM 30.0360 -95.8158 183° South 236 272 6,100 -2,040 Descending FlightAware ADS-B
07:16AM 30.0326 -95.8156 177° South 238 274 6,000 -900 Descending FlightAware ADS-B
07:16AM 30.0288 -95.8149 171° South 239 275 6,000 -900 Level FlightAware ADS-B
07:16AM 30.0254 -95.8138 164° South 240 276 5,900 -2,040 Descending FlightAware ADS-B
07:16AM 30.0217 -95.8120 157° South 240 276 5,800 -2,040 Descending FlightAware ADS-B
07:16AM 30.0188 -95.8100 149° Southeast 240 276 5,700 -1,020 Descending FlightAware ADS-B
07:16AM 30.0161 -95.8076 142° Southeast 239 275 5,700  Level FlightAware ADS-B
07:16AM 30.0134 -95.8044 134° Southeast 238 274 5,700 -900 Level FlightAware ADS-B
07:16AM 30.0110 -95.8011 130° Southeast 237 273 5,600 -780 Descending FlightAware ADS-B
07:16AM 30.0084 -95.7969 126° Southeast 235 270 5,600 -300 Level FlightAware ADS-B
07:17AM 29.9994 -95.7810 123° Southeast 232 267 5,500 -600 Descending FlightAware ADS-B
07:17AM 29.9969 -95.7750 116° Southeast 232 267 5,400 -720 Descending FlightAware ADS-B
07:17AM 29.9956 -95.7705 108° East 232 267 5,400  Level FlightAware ADS-B
07:17AM 29.9948 -95.7670 105° East 231 266 5,400 -1,020 Level FlightAware ADS-B
07:17AM 29.9941 -95.7634 103° East 231 266 5,300 -900 Descending FlightAware ADS-B
07:17AM 29.9935 -95.7583 98° East 232 267 5,300  Level FlightAware ADS-B
07:17AM 29.9932 -95.7537 94° East 233 268 5,300 -780 Level FlightAware ADS-B
07:17AM 29.9929 -95.7488 94° East 233 268 5,200 -840 Descending FlightAware ADS-B
07:17AM 29.9926 -95.7351 91° East 233 268 5,100 -480 Descending FlightAware ADS-B
07:18AM 29.9927 -95.7152 90° East 234 269 5,000 -240 Descending FlightAware ADS-B
07:18AM 29.9927 -95.7024 90° East 226 260 5,000 -240 Level FlightAware ADS-B
07:18AM 29.9927 -95.6844 90° East 213 245 4,900 -420 Descending FlightAware ADS-B
07:18AM 29.9928 -95.6674 90° East 206 237 4,800 -420 Descending FlightAware ADS-B
07:18AM 29.9929 -95.6508 90° East 205 236 4,700 -600 Descending FlightAware ADS-B
07:19AM 29.9929 -95.6329 90° East 205 236 4,500 -960 Descending FlightAware ADS-B
07:19AM 29.9929 -95.6163 90° East 205 236 4,200 -1,020 Descending FlightAware ADS-B
07:19AM 29.9930 -95.6004 90° East 205 236 4,000 -1,020 Descending FlightAware ADS-B
07:19AM 29.9931 -95.5834 90° East 206 237 3,700 -1,200 Descending FlightAware ADS-B
07:20AM 29.9931 -95.5663 90° East 207 238 3,400 -1,200 Descending FlightAware ADS-B
07:20AM 29.9931 -95.5495 90° East 209 241 3,100 -1,020 Descending FlightAware ADS-B
07:20AM 29.9931 -95.5328 90° East 205 236 2,900 -1,020 Descending FlightAware ADS-B
07:20AM 29.9932 -95.5165 90° East 202 232 2,600 -1,200 Descending FlightAware ADS-B
07:21AM 29.9932 -95.4994 90° East 198 228 2,300 -960 Descending FlightAware ADS-B
07:21AM 29.9933 -95.4822 90° East 196 226 2,100 -1,020 Descending FlightAware ADS-B
07:21AM 29.9933 -95.4675 90° East 195 224 1,800 -1,020 Descending FlightAware ADS-B
07:22AM 29.9933 -95.4514 90° East 188 216 1,600 -840 Descending FlightAware ADS-B
07:22AM 29.9933 -95.4385 90° East 179 206 1,400 -1,020 Descending FlightAware ADS-B
07:22AM 29.9933 -95.4224 90° East 162 186 1,100 -960 Descending FlightAware ADS-B
07:22AM 29.9934 -95.4107 89° East 149 171 900 -840 Descending FlightAware ADS-B
07:23AM 29.9933 -95.3987 91° East 141 162 700 -720 Descending FlightAware ADS-B
07:23AM 29.9934 -95.3909 89° East 135 155 600 -720 Descending FlightAware ADS-B
07:23AM 29.9934 -95.3798 90° East 135 155 400 -720 Descending FlightAware ADS-B
07:23AM 29.9933 -95.3714 91° East 134 154 300 -720 Descending FlightAware ADS-B
07:23AM 29.9934 -95.3607 89° East 133 153 100 -840 Descending FlightAware ADS-B